sensor_id;sensor_type;location;lat;lon;timestamp;temperature;humidity
35377;DHT22;21480;51.642;4.834;2022-08-11T00:01:18;19.20;99.90
35377;DHT22;21480;51.642;4.834;2022-08-11T00:03:53;19.20;99.90
35377;DHT22;21480;51.642;4.834;2022-08-11T00:06:27;19.30;99.90
35377;DHT22;21480;51.642;4.834;2022-08-11T00:08:54;19.30;99.90
35377;DHT22;21480;51.642;4.834;2022-08-11T00:11:21;19.20;99.90
35377;DHT22;21480;51.642;4.834;2022-08-11T00:13:48;19.20;99.90
35377;DHT22;21480;51.642;4.834;2022-08-11T00:16:20;19.20;99.90
35377;DHT22;21480;51.642;4.834;2022-08-11T00:18:50;19.20;99.90
35377;DHT22;21480;51.642;4.834;2022-08-11T00:21:18;19.10;99.90
35377;DHT22;21480;51.642;4.834;2022-08-11T00:24:05;19.00;99.90
35377;DHT22;21480;51.642;4.834;2022-08-11T00:26:32;19.00;99.90
35377;DHT22;21480;51.642;4.834;2022-08-11T00:29:11;18.90;99.90
35377;DHT22;21480;51.642;4.834;2022-08-11T00:31:37;18.90;99.90
35377;DHT22;21480;51.642;4.834;2022-08-11T00:34:09;18.90;99.90
35377;DHT22;21480;51.642;4.834;2022-08-11T00:36:46;18.80;99.90
35377;DHT22;21480;51.642;4.834;2022-08-11T00:39:15;18.80;99.90
35377;DHT22;21480;51.642;4.834;2022-08-11T00:42:14;18.80;99.90
35377;DHT22;21480;51.642;4.834;2022-08-11T01:13:13;18.20;99.90
35377;DHT22;21480;51.642;4.834;2022-08-11T01:15:47;18.10;99.90
35377;DHT22;21480;51.642;4.834;2022-08-11T01:30:19;18.10;99.90
35377;DHT22;21480;51.642;4.834;2022-08-11T01:38:54;18.10;99.90
35377;DHT22;21480;51.642;4.834;2022-08-11T01:48:09;17.80;99.90
35377;DHT22;21480;51.642;4.834;2022-08-11T01:51:02;17.70;99.90
35377;DHT22;21480;51.642;4.834;2022-08-11T01:56:45;17.60;99.90
35377;DHT22;21480;51.642;4.834;2022-08-11T01:59:15;17.70;99.90
35377;DHT22;21480;51.642;4.834;2022-08-11T02:01:57;17.70;99.90
35377;DHT22;21480;51.642;4.834;2022-08-11T02:07:28;17.90;99.90
35377;DHT22;21480;51.642;4.834;2022-08-11T02:19:05;17.90;99.90
35377;DHT22;21480;51.642;4.834;2022-08-11T02:25:30;17.90;99.90
35377;DHT22;21480;51.642;4.834;2022-08-11T02:30:57;17.70;99.90
35377;DHT22;21480;51.642;4.834;2022-08-11T02:33:53;17.70;99.90
35377;DHT22;21480;51.642;4.834;2022-08-11T02:36:32;17.60;99.90
35377;DHT22;21480;51.642;4.834;2022-08-11T02:39:08;17.60;99.90
35377;DHT22;21480;51.642;4.834;2022-08-11T02:41:55;17.60;99.90
35377;DHT22;21480;51.642;4.834;2022-08-11T02:47:10;17.50;99.90
35377;DHT22;21480;51.642;4.834;2022-08-11T02:50:04;17.50;99.90
35377;DHT22;21480;51.642;4.834;2022-08-11T02:58:28;17.10;99.90
35377;DHT22;21480;51.642;4.834;2022-08-11T03:01:17;17.10;99.90
35377;DHT22;21480;51.642;4.834;2022-08-11T03:03:59;17.00;99.90
35377;DHT22;21480;51.642;4.834;2022-08-11T03:06:58;17.00;99.90
35377;DHT22;21480;51.642;4.834;2022-08-11T03:09:45;17.00;99.90
35377;DHT22;21480;51.642;4.834;2022-08-11T03:12:50;16.90;99.90
35377;DHT22;21480;51.642;4.834;2022-08-11T03:15:42;16.90;99.90
35377;DHT22;21480;51.642;4.834;2022-08-11T03:18:36;16.90;99.90
35377;DHT22;21480;51.642;4.834;2022-08-11T03:21:20;17.00;99.90
35377;DHT22;21480;51.642;4.834;2022-08-11T03:24:13;16.90;99.90
35377;DHT22;21480;51.642;4.834;2022-08-11T03:27:08;16.90;99.90
35377;DHT22;21480;51.642;4.834;2022-08-11T03:32:40;16.70;99.90
35377;DHT22;21480;51.642;4.834;2022-08-11T03:35:08;16.60;99.90
35377;DHT22;21480;51.642;4.834;2022-08-11T03:37:55;16.50;99.90
35377;DHT22;21480;51.642;4.834;2022-08-11T03:40:46;16.40;99.90
35377;DHT22;21480;51.642;4.834;2022-08-11T04:23:55;15.60;99.90
35377;DHT22;21480;51.642;4.834;2022-08-11T04:29:31;15.70;99.90
35377;DHT22;21480;51.642;4.834;2022-08-11T04:34:50;15.70;99.90
35377;DHT22;21480;51.642;4.834;2022-08-11T05:12:59;16.50;99.90
35377;DHT22;21480;51.642;4.834;2022-08-11T05:15:52;16.70;99.90
35377;DHT22;21480;51.642;4.834;2022-08-11T05:18:49;17.00;99.90
35377;DHT22;21480;51.642;4.834;2022-08-11T05:21:35;17.40;99.90
35377;DHT22;21480;51.642;4.834;2022-08-11T05:24:36;17.80;99.90
35377;DHT22;21480;51.642;4.834;2022-08-11T05:27:31;18.00;99.90
35377;DHT22;21480;51.642;4.834;2022-08-11T05:30:16;18.20;99.90
35377;DHT22;21480;51.642;4.834;2022-08-11T05:33:14;18.40;99.90
35377;DHT22;21480;51.642;4.834;2022-08-11T05:36:32;18.80;99.90
35377;DHT22;21480;51.642;4.834;2022-08-11T05:39:05;19.10;99.90
35377;DHT22;21480;51.642;4.834;2022-08-11T05:41:56;19.30;99.90
35377;DHT22;21480;51.642;4.834;2022-08-11T05:44:45;19.50;99.90
35377;DHT22;21480;51.642;4.834;2022-08-11T05:47:30;19.60;99.90
35377;DHT22;21480;51.642;4.834;2022-08-11T05:50:18;19.60;99.90
35377;DHT22;21480;51.642;4.834;2022-08-11T05:53:09;19.50;99.90
35377;DHT22;21480;51.642;4.834;2022-08-11T05:55:54;19.40;99.90
35377;DHT22;21480;51.642;4.834;2022-08-11T05:58:40;19.40;99.90
35377;DHT22;21480;51.642;4.834;2022-08-11T06:01:08;19.30;99.90
35377;DHT22;21480;51.642;4.834;2022-08-11T06:03:34;19.30;99.90
35377;DHT22;21480;51.642;4.834;2022-08-11T06:06:21;19.30;99.90
35377;DHT22;21480;51.642;4.834;2022-08-11T06:08:47;19.30;99.90
35377;DHT22;21480;51.642;4.834;2022-08-11T06:11:15;19.30;99.90
35377;DHT22;21480;51.642;4.834;2022-08-11T06:13:43;19.30;99.90
35377;DHT22;21480;51.642;4.834;2022-08-11T06:16:13;19.40;99.90
35377;DHT22;21480;51.642;4.834;2022-08-11T06:18:46;19.40;99.90
35377;DHT22;21480;51.642;4.834;2022-08-11T06:21:13;19.60;99.90
35377;DHT22;21480;51.642;4.834;2022-08-11T06:23:41;19.60;99.90
35377;DHT22;21480;51.642;4.834;2022-08-11T06:26:09;19.70;99.90
35377;DHT22;21480;51.642;4.834;2022-08-11T06:28:37;19.80;99.90
35377;DHT22;21480;51.642;4.834;2022-08-11T06:31:22;19.90;99.90
35377;DHT22;21480;51.642;4.834;2022-08-11T06:34:20;19.90;99.90
35377;DHT22;21480;51.642;4.834;2022-08-11T06:42:57;20.20;99.90
35377;DHT22;21480;51.642;4.834;2022-08-11T06:46:02;20.30;99.90
35377;DHT22;21480;51.642;4.834;2022-08-11T06:48:29;20.40;99.90
35377;DHT22;21480;51.642;4.834;2022-08-11T06:51:03;20.60;99.90
35377;DHT22;21480;51.642;4.834;2022-08-11T06:53:51;20.70;99.90
35377;DHT22;21480;51.642;4.834;2022-08-11T06:56:27;20.80;99.90
35377;DHT22;21480;51.642;4.834;2022-08-11T06:59:15;20.90;99.90
35377;DHT22;21480;51.642;4.834;2022-08-11T07:04:39;21.10;99.90
35377;DHT22;21480;51.642;4.834;2022-08-11T07:10:25;21.30;99.90
35377;DHT22;21480;51.642;4.834;2022-08-11T07:13:15;21.40;99.90
35377;DHT22;21480;51.642;4.834;2022-08-11T07:16:03;21.50;99.90
35377;DHT22;21480;51.642;4.834;2022-08-11T07:18:32;21.60;99.90
35377;DHT22;21480;51.642;4.834;2022-08-11T07:21:26;21.70;99.90
35377;DHT22;21480;51.642;4.834;2022-08-11T07:24:16;21.80;99.90
35377;DHT22;21480;51.642;4.834;2022-08-11T07:27:05;22.00;99.90
35377;DHT22;21480;51.642;4.834;2022-08-11T07:29:51;22.20;99.90
35377;DHT22;21480;51.642;4.834;2022-08-11T07:32:26;22.40;99.90
35377;DHT22;21480;51.642;4.834;2022-08-11T07:35:08;22.50;99.90
35377;DHT22;21480;51.642;4.834;2022-08-11T07:37:40;22.70;99.90
35377;DHT22;21480;51.642;4.834;2022-08-11T07:40:07;22.80;99.90
35377;DHT22;21480;51.642;4.834;2022-08-11T07:42:35;22.80;99.90
35377;DHT22;21480;51.642;4.834;2022-08-11T07:45:05;22.90;99.90
35377;DHT22;21480;51.642;4.834;2022-08-11T07:47:51;23.00;99.90
35377;DHT22;21480;51.642;4.834;2022-08-11T07:50:42;23.10;99.90
35377;DHT22;21480;51.642;4.834;2022-08-11T07:53:28;23.20;99.90
35377;DHT22;21480;51.642;4.834;2022-08-11T07:55:59;23.40;99.90
35377;DHT22;21480;51.642;4.834;2022-08-11T07:58:26;23.50;99.90
35377;DHT22;21480;51.642;4.834;2022-08-11T08:01:18;23.60;99.90
35377;DHT22;21480;51.642;4.834;2022-08-11T08:04:04;23.70;99.90
35377;DHT22;21480;51.642;4.834;2022-08-11T08:06:49;23.80;99.90
35377;DHT22;21480;51.642;4.834;2022-08-11T08:09:34;23.90;99.90
35377;DHT22;21480;51.642;4.834;2022-08-11T08:12:21;24.00;99.90
35377;DHT22;21480;51.642;4.834;2022-08-11T08:15:07;24.10;99.90
35377;DHT22;21480;51.642;4.834;2022-08-11T08:17:53;24.20;99.90
35377;DHT22;21480;51.642;4.834;2022-08-11T08:20:29;24.30;99.90
35377;DHT22;21480;51.642;4.834;2022-08-11T08:22:59;24.40;99.90
35377;DHT22;21480;51.642;4.834;2022-08-11T08:25:27;24.60;99.90
35377;DHT22;21480;51.642;4.834;2022-08-11T08:27:54;24.60;99.90
35377;DHT22;21480;51.642;4.834;2022-08-11T08:30:21;24.70;99.90
35377;DHT22;21480;51.642;4.834;2022-08-11T08:33:06;24.70;99.90
35377;DHT22;21480;51.642;4.834;2022-08-11T08:35:34;24.90;99.90
35377;DHT22;21480;51.642;4.834;2022-08-11T08:38:01;25.10;99.90
35377;DHT22;21480;51.642;4.834;2022-08-11T08:40:27;25.20;99.90
35377;DHT22;21480;51.642;4.834;2022-08-11T08:42:56;25.30;99.10
35377;DHT22;21480;51.642;4.834;2022-08-11T08:45:23;25.30;99.20
35377;DHT22;21480;51.642;4.834;2022-08-11T08:48:04;25.50;98.40
35377;DHT22;21480;51.642;4.834;2022-08-11T08:50:35;25.70;99.10
35377;DHT22;21480;51.642;4.834;2022-08-11T08:53:25;25.80;98.00
35377;DHT22;21480;51.642;4.834;2022-08-11T08:55:58;25.90;96.90
35377;DHT22;21480;51.642;4.834;2022-08-11T08:58:25;26.00;95.80
35377;DHT22;21480;51.642;4.834;2022-08-11T09:00:53;26.10;95.50
35377;DHT22;21480;51.642;4.834;2022-08-11T09:03:19;26.20;95.50
35377;DHT22;21480;51.642;4.834;2022-08-11T09:05:47;26.30;94.90
35377;DHT22;21480;51.642;4.834;2022-08-11T09:08:16;26.40;93.20
35377;DHT22;21480;51.642;4.834;2022-08-11T09:10:45;26.40;93.40
35377;DHT22;21480;51.642;4.834;2022-08-11T09:13:13;26.50;93.10
35377;DHT22;21480;51.642;4.834;2022-08-11T09:15:40;26.60;92.70
35377;DHT22;21480;51.642;4.834;2022-08-11T09:18:06;26.70;92.70
35377;DHT22;21480;51.642;4.834;2022-08-11T09:20:35;26.80;92.90
35377;DHT22;21480;51.642;4.834;2022-08-11T09:23:08;26.90;91.00
35377;DHT22;21480;51.642;4.834;2022-08-11T09:25:56;27.00;91.20
35377;DHT22;21480;51.642;4.834;2022-08-11T09:28:42;27.10;91.70
35377;DHT22;21480;51.642;4.834;2022-08-11T09:31:09;27.10;91.80
35377;DHT22;21480;51.642;4.834;2022-08-11T09:33:40;27.20;92.80
35377;DHT22;21480;51.642;4.834;2022-08-11T09:36:07;27.30;93.20
35377;DHT22;21480;51.642;4.834;2022-08-11T09:38:52;27.40;94.60
35377;DHT22;21480;51.642;4.834;2022-08-11T09:41:39;27.50;93.10
35377;DHT22;21480;51.642;4.834;2022-08-11T09:44:07;27.50;93.60
35377;DHT22;21480;51.642;4.834;2022-08-11T09:46:54;27.60;93.90
35377;DHT22;21480;51.642;4.834;2022-08-11T09:49:22;27.60;93.10
35377;DHT22;21480;51.642;4.834;2022-08-11T09:51:49;27.70;94.50
35377;DHT22;21480;51.642;4.834;2022-08-11T09:54:17;27.70;91.10
35377;DHT22;21480;51.642;4.834;2022-08-11T09:56:44;27.80;91.30
35377;DHT22;21480;51.642;4.834;2022-08-11T09:59:28;27.90;91.70
35377;DHT22;21480;51.642;4.834;2022-08-11T10:02:00;27.90;90.90
35377;DHT22;21480;51.642;4.834;2022-08-11T10:04:40;28.00;90.60
35377;DHT22;21480;51.642;4.834;2022-08-11T10:07:07;28.00;89.00
35377;DHT22;21480;51.642;4.834;2022-08-11T10:12:07;28.10;87.10
35377;DHT22;21480;51.642;4.834;2022-08-11T10:14:33;28.20;89.20
35377;DHT22;21480;51.642;4.834;2022-08-11T10:17:21;28.40;89.20
35377;DHT22;21480;51.642;4.834;2022-08-11T10:19:48;28.60;85.50
35377;DHT22;21480;51.642;4.834;2022-08-11T10:22:15;28.60;84.50
35377;DHT22;21480;51.642;4.834;2022-08-11T10:25:01;28.70;84.90
35377;DHT22;21480;51.642;4.834;2022-08-11T10:27:46;28.80;84.60
35377;DHT22;21480;51.642;4.834;2022-08-11T10:30:19;28.80;84.10
35377;DHT22;21480;51.642;4.834;2022-08-11T10:33:03;28.80;81.50
35377;DHT22;21480;51.642;4.834;2022-08-11T10:35:48;28.80;84.50
35377;DHT22;21480;51.642;4.834;2022-08-11T10:38:14;28.90;83.00
35377;DHT22;21480;51.642;4.834;2022-08-11T10:40:45;29.10;81.60
35377;DHT22;21480;51.642;4.834;2022-08-11T10:43:31;29.10;81.60
35377;DHT22;21480;51.642;4.834;2022-08-11T10:45:57;29.10;81.10
35377;DHT22;21480;51.642;4.834;2022-08-11T10:49:01;29.20;79.80
35377;DHT22;21480;51.642;4.834;2022-08-11T10:51:27;29.30;79.90
35377;DHT22;21480;51.642;4.834;2022-08-11T10:54:14;29.40;79.60
35377;DHT22;21480;51.642;4.834;2022-08-11T10:56:59;29.50;77.20
35377;DHT22;21480;51.642;4.834;2022-08-11T10:59:44;29.50;77.50
35377;DHT22;21480;51.642;4.834;2022-08-11T11:02:13;29.60;77.00
35377;DHT22;21480;51.642;4.834;2022-08-11T11:04:56;29.50;76.20
35377;DHT22;21480;51.642;4.834;2022-08-11T11:07:35;29.60;75.00
35377;DHT22;21480;51.642;4.834;2022-08-11T11:10:05;29.70;75.00
35377;DHT22;21480;51.642;4.834;2022-08-11T11:12:40;29.80;75.00
35377;DHT22;21480;51.642;4.834;2022-08-11T11:15:28;30.00;73.60
35377;DHT22;21480;51.642;4.834;2022-08-11T11:18:34;30.20;71.80
35377;DHT22;21480;51.642;4.834;2022-08-11T11:21:18;30.40;72.60
35377;DHT22;21480;51.642;4.834;2022-08-11T11:24:01;30.60;69.70
35377;DHT22;21480;51.642;4.834;2022-08-11T11:26:42;30.70;71.50
35377;DHT22;21480;51.642;4.834;2022-08-11T11:29:29;30.80;68.00
35377;DHT22;21480;51.642;4.834;2022-08-11T11:32:16;30.80;67.70
35377;DHT22;21480;51.642;4.834;2022-08-11T11:37:16;30.80;65.10
35377;DHT22;21480;51.642;4.834;2022-08-11T11:39:43;31.20;68.40
35377;DHT22;21480;51.642;4.834;2022-08-11T11:42:10;31.30;65.70
35377;DHT22;21480;51.642;4.834;2022-08-11T11:44:41;31.50;65.20
35377;DHT22;21480;51.642;4.834;2022-08-11T11:47:10;31.50;64.60
35377;DHT22;21480;51.642;4.834;2022-08-11T11:49:36;31.70;62.80
35377;DHT22;21480;51.642;4.834;2022-08-11T11:52:06;31.80;63.80
35377;DHT22;21480;51.642;4.834;2022-08-11T11:54:33;32.00;63.10
35377;DHT22;21480;51.642;4.834;2022-08-11T11:57:01;32.10;61.70
35377;DHT22;21480;51.642;4.834;2022-08-11T12:00:00;32.10;60.50
35377;DHT22;21480;51.642;4.834;2022-08-11T12:02:47;32.10;60.30
35377;DHT22;21480;51.642;4.834;2022-08-11T12:05:13;32.60;56.60
35377;DHT22;21480;51.642;4.834;2022-08-11T12:07:39;33.00;59.20
35377;DHT22;21480;51.642;4.834;2022-08-11T12:10:25;33.50;58.30
35377;DHT22;21480;51.642;4.834;2022-08-11T12:12:51;33.80;56.80
35377;DHT22;21480;51.642;4.834;2022-08-11T12:15:36;34.20;57.30
35377;DHT22;21480;51.642;4.834;2022-08-11T12:18:03;34.70;54.50
35377;DHT22;21480;51.642;4.834;2022-08-11T12:20:30;35.10;54.10
35377;DHT22;21480;51.642;4.834;2022-08-11T12:22:56;35.40;54.00
35377;DHT22;21480;51.642;4.834;2022-08-11T12:25:42;35.40;54.00
35377;DHT22;21480;51.642;4.834;2022-08-11T12:28:27;35.50;54.30
35377;DHT22;21480;51.642;4.834;2022-08-11T12:30:54;36.20;52.10
35377;DHT22;21480;51.642;4.834;2022-08-11T12:33:20;36.30;52.20
35377;DHT22;21480;51.642;4.834;2022-08-11T12:35:57;36.10;53.40
35377;DHT22;21480;51.642;4.834;2022-08-11T12:38:24;36.10;51.50
35377;DHT22;21480;51.642;4.834;2022-08-11T12:40:54;36.00;51.50
35377;DHT22;21480;51.642;4.834;2022-08-11T12:43:42;35.40;52.50
35377;DHT22;21480;51.642;4.834;2022-08-11T12:46:32;35.30;52.10
35377;DHT22;21480;51.642;4.834;2022-08-11T12:49:02;35.50;52.60
35377;DHT22;21480;51.642;4.834;2022-08-11T12:51:52;36.20;51.30
35377;DHT22;21480;51.642;4.834;2022-08-11T12:54:31;36.80;51.90
35377;DHT22;21480;51.642;4.834;2022-08-11T12:57:14;37.30;50.50
35377;DHT22;21480;51.642;4.834;2022-08-11T13:00:00;38.00;51.30
35377;DHT22;21480;51.642;4.834;2022-08-11T13:02:46;38.20;48.80
35377;DHT22;21480;51.642;4.834;2022-08-11T13:05:31;38.10;49.00
35377;DHT22;21480;51.642;4.834;2022-08-11T13:07:59;38.40;49.60
35377;DHT22;21480;51.642;4.834;2022-08-11T13:10:26;38.90;47.40
35377;DHT22;21480;51.642;4.834;2022-08-11T13:13:11;39.50;47.30
35377;DHT22;21480;51.642;4.834;2022-08-11T13:15:39;39.80;46.50
35377;DHT22;21480;51.642;4.834;2022-08-11T13:18:05;40.10;44.80
35377;DHT22;21480;51.642;4.834;2022-08-11T13:20:33;40.10;46.10
35377;DHT22;21480;51.642;4.834;2022-08-11T13:22:59;39.40;46.60
35377;DHT22;21480;51.642;4.834;2022-08-11T13:25:30;39.50;46.40
35377;DHT22;21480;51.642;4.834;2022-08-11T13:27:58;40.10;45.30
35377;DHT22;21480;51.642;4.834;2022-08-11T13:30:27;40.70;44.70
35377;DHT22;21480;51.642;4.834;2022-08-11T13:33:13;41.80;44.40
35377;DHT22;21480;51.642;4.834;2022-08-11T13:35:40;42.60;43.00
35377;DHT22;21480;51.642;4.834;2022-08-11T13:38:07;42.40;44.00
35377;DHT22;21480;51.642;4.834;2022-08-11T13:40:38;42.00;43.40
35377;DHT22;21480;51.642;4.834;2022-08-11T13:43:05;41.30;43.00
35377;DHT22;21480;51.642;4.834;2022-08-11T13:45:32;40.60;44.40
35377;DHT22;21480;51.642;4.834;2022-08-11T13:48:08;41.20;43.80
35377;DHT22;21480;51.642;4.834;2022-08-11T13:50:35;41.60;43.60
35377;DHT22;21480;51.642;4.834;2022-08-11T13:53:25;41.50;43.40
35377;DHT22;21480;51.642;4.834;2022-08-11T13:55:52;41.00;43.00
35377;DHT22;21480;51.642;4.834;2022-08-11T13:58:19;40.70;44.70
35377;DHT22;21480;51.642;4.834;2022-08-11T14:00:49;40.00;43.10
35377;DHT22;21480;51.642;4.834;2022-08-11T14:03:24;40.30;44.10
35377;DHT22;21480;51.642;4.834;2022-08-11T14:05:52;40.40;45.10
35377;DHT22;21480;51.642;4.834;2022-08-11T14:08:24;40.70;43.90
35377;DHT22;21480;51.642;4.834;2022-08-11T14:10:52;41.60;42.90
35377;DHT22;21480;51.642;4.834;2022-08-11T14:13:42;40.70;43.00
35377;DHT22;21480;51.642;4.834;2022-08-11T14:16:18;40.00;43.80
35377;DHT22;21480;51.642;4.834;2022-08-11T14:18:47;40.30;42.90
35377;DHT22;21480;51.642;4.834;2022-08-11T14:21:17;40.00;42.70
35377;DHT22;21480;51.642;4.834;2022-08-11T14:24:02;40.60;41.80
35377;DHT22;21480;51.642;4.834;2022-08-11T14:26:29;40.00;42.90
35377;DHT22;21480;51.642;4.834;2022-08-11T14:31:25;40.70;41.80
35377;DHT22;21480;51.642;4.834;2022-08-11T14:33:56;41.20;41.90
35377;DHT22;21480;51.642;4.834;2022-08-11T14:36:26;41.20;41.90
35377;DHT22;21480;51.642;4.834;2022-08-11T14:38:53;40.70;42.20
35377;DHT22;21480;51.642;4.834;2022-08-11T14:41:20;40.50;41.20
35377;DHT22;21480;51.642;4.834;2022-08-11T14:44:07;40.70;40.80
35377;DHT22;21480;51.642;4.834;2022-08-11T14:46:52;41.00;41.90
35377;DHT22;21480;51.642;4.834;2022-08-11T14:49:37;40.80;41.60
35377;DHT22;21480;51.642;4.834;2022-08-11T14:52:06;41.20;42.00
35377;DHT22;21480;51.642;4.834;2022-08-11T14:54:35;41.40;41.20
35377;DHT22;21480;51.642;4.834;2022-08-11T14:57:20;41.10;42.10
35377;DHT22;21480;51.642;4.834;2022-08-11T14:59:48;41.10;42.20
35377;DHT22;21480;51.642;4.834;2022-08-11T15:02:17;41.10;43.10
35377;DHT22;21480;51.642;4.834;2022-08-11T15:05:03;41.40;44.90
35377;DHT22;21480;51.642;4.834;2022-08-11T15:07:31;41.40;48.60
35377;DHT22;21480;51.642;4.834;2022-08-11T15:09:58;40.40;43.60
35377;DHT22;21480;51.642;4.834;2022-08-11T15:12:25;40.40;43.30
35377;DHT22;21480;51.642;4.834;2022-08-11T15:14:51;40.30;43.40
35377;DHT22;21480;51.642;4.834;2022-08-11T15:17:38;40.00;43.90
35377;DHT22;21480;51.642;4.834;2022-08-11T15:20:11;40.20;43.10
35377;DHT22;21480;51.642;4.834;2022-08-11T15:22:56;40.50;43.70
35377;DHT22;21480;51.642;4.834;2022-08-11T15:25:52;40.00;48.40
35377;DHT22;21480;51.642;4.834;2022-08-11T15:28:21;39.30;44.90
35377;DHT22;21480;51.642;4.834;2022-08-11T15:31:06;39.40;45.10
35377;DHT22;21480;51.642;4.834;2022-08-11T15:33:58;39.10;44.90
35377;DHT22;21480;51.642;4.834;2022-08-11T15:36:46;39.10;46.80
35377;DHT22;21480;51.642;4.834;2022-08-11T15:39:46;38.50;44.80
35377;DHT22;21480;51.642;4.834;2022-08-11T15:42:39;39.00;45.70
35377;DHT22;21480;51.642;4.834;2022-08-11T15:45:24;39.50;43.50
35377;DHT22;21480;51.642;4.834;2022-08-11T15:48:14;39.60;43.60
35377;DHT22;21480;51.642;4.834;2022-08-11T15:50:47;39.90;43.00
35377;DHT22;21480;51.642;4.834;2022-08-11T15:53:34;39.60;43.90
35377;DHT22;21480;51.642;4.834;2022-08-11T15:56:03;39.10;43.50
35377;DHT22;21480;51.642;4.834;2022-08-11T15:58:35;39.10;43.60
35377;DHT22;21480;51.642;4.834;2022-08-11T16:01:23;38.90;44.70
35377;DHT22;21480;51.642;4.834;2022-08-11T16:04:12;39.00;44.40
35377;DHT22;21480;51.642;4.834;2022-08-11T16:06:56;39.10;44.40
35377;DHT22;21480;51.642;4.834;2022-08-11T16:09:33;38.40;45.30
35377;DHT22;21480;51.642;4.834;2022-08-11T16:12:03;37.60;44.70
35377;DHT22;21480;51.642;4.834;2022-08-11T16:14:38;37.70;47.30
35377;DHT22;21480;51.642;4.834;2022-08-11T16:17:26;37.40;44.70
35377;DHT22;21480;51.642;4.834;2022-08-11T16:19:56;38.10;44.00
35377;DHT22;21480;51.642;4.834;2022-08-11T16:22:27;38.20;43.80
35377;DHT22;21480;51.642;4.834;2022-08-11T16:25:04;38.20;44.50
35377;DHT22;21480;51.642;4.834;2022-08-11T16:27:36;38.00;44.20
35377;DHT22;21480;51.642;4.834;2022-08-11T16:30:04;37.20;46.40
35377;DHT22;21480;51.642;4.834;2022-08-11T16:32:35;37.00;46.20
35377;DHT22;21480;51.642;4.834;2022-08-11T16:35:09;36.60;47.60
35377;DHT22;21480;51.642;4.834;2022-08-11T16:37:55;36.60;45.90
35377;DHT22;21480;51.642;4.834;2022-08-11T16:40:41;36.80;46.70
35377;DHT22;21480;51.642;4.834;2022-08-11T16:43:11;36.90;46.40
35377;DHT22;21480;51.642;4.834;2022-08-11T16:45:57;36.50;46.40
35377;DHT22;21480;51.642;4.834;2022-08-11T16:48:45;35.70;44.80
35377;DHT22;21480;51.642;4.834;2022-08-11T16:51:13;34.80;48.30
35377;DHT22;21480;51.642;4.834;2022-08-11T16:53:39;34.00;48.00
35377;DHT22;21480;51.642;4.834;2022-08-11T16:56:11;33.20;48.90
35377;DHT22;21480;51.642;4.834;2022-08-11T16:58:42;32.40;50.10
35377;DHT22;21480;51.642;4.834;2022-08-11T17:01:27;32.00;50.10
35377;DHT22;21480;51.642;4.834;2022-08-11T17:04:02;31.50;52.10
35377;DHT22;21480;51.642;4.834;2022-08-11T17:06:50;31.30;51.00
35377;DHT22;21480;51.642;4.834;2022-08-11T17:09:35;31.00;52.00
35377;DHT22;21480;51.642;4.834;2022-08-11T17:12:24;31.00;51.60
35377;DHT22;21480;51.642;4.834;2022-08-11T17:15:14;30.90;51.20
35377;DHT22;21480;51.642;4.834;2022-08-11T17:18:00;31.30;50.60
35377;DHT22;21480;51.642;4.834;2022-08-11T17:20:28;32.00;50.50
35377;DHT22;21480;51.642;4.834;2022-08-11T17:22:55;32.90;50.10
35377;DHT22;21480;51.642;4.834;2022-08-11T17:25:41;33.50;49.50
35377;DHT22;21480;51.642;4.834;2022-08-11T17:28:09;34.00;48.50
35377;DHT22;21480;51.642;4.834;2022-08-11T17:30:37;34.30;46.70
35377;DHT22;21480;51.642;4.834;2022-08-11T17:33:23;34.60;47.20
35377;DHT22;21480;51.642;4.834;2022-08-11T17:36:08;35.00;48.80
35377;DHT22;21480;51.642;4.834;2022-08-11T17:38:35;35.70;48.20
35377;DHT22;21480;51.642;4.834;2022-08-11T17:41:03;35.90;47.80
35377;DHT22;21480;51.642;4.834;2022-08-11T17:43:49;35.90;47.10
35377;DHT22;21480;51.642;4.834;2022-08-11T17:46:34;35.90;48.00
35377;DHT22;21480;51.642;4.834;2022-08-11T17:49:19;35.40;48.10
35377;DHT22;21480;51.642;4.834;2022-08-11T17:51:47;35.40;48.10
35377;DHT22;21480;51.642;4.834;2022-08-11T17:54:35;35.10;50.20
35377;DHT22;21480;51.642;4.834;2022-08-11T17:57:21;35.10;48.60
35377;DHT22;21480;51.642;4.834;2022-08-11T18:00:06;34.60;48.70
35377;DHT22;21480;51.642;4.834;2022-08-11T18:02:34;34.40;49.20
35377;DHT22;21480;51.642;4.834;2022-08-11T18:05:20;34.30;49.80
35377;DHT22;21480;51.642;4.834;2022-08-11T18:07:50;34.10;49.40
35377;DHT22;21480;51.642;4.834;2022-08-11T18:10:34;33.90;48.80
35377;DHT22;21480;51.642;4.834;2022-08-11T18:13:21;33.70;50.90
35377;DHT22;21480;51.642;4.834;2022-08-11T18:16:07;33.60;49.20
35377;DHT22;21480;51.642;4.834;2022-08-11T18:18:52;33.30;50.90
35377;DHT22;21480;51.642;4.834;2022-08-11T18:21:37;32.70;51.90
35377;DHT22;21480;51.642;4.834;2022-08-11T18:24:26;32.10;53.00
35377;DHT22;21480;51.642;4.834;2022-08-11T18:27:15;31.50;51.90
35377;DHT22;21480;51.642;4.834;2022-08-11T18:30:02;31.10;52.30
35377;DHT22;21480;51.642;4.834;2022-08-11T18:32:48;30.80;54.60
35377;DHT22;21480;51.642;4.834;2022-08-11T18:35:34;30.60;54.50
35377;DHT22;21480;51.642;4.834;2022-08-11T18:38:21;30.60;54.10
35377;DHT22;21480;51.642;4.834;2022-08-11T18:41:09;30.60;54.50
35377;DHT22;21480;51.642;4.834;2022-08-11T18:43:56;30.70;54.20
35377;DHT22;21480;51.642;4.834;2022-08-11T18:46:44;30.60;55.30
35377;DHT22;21480;51.642;4.834;2022-08-11T18:49:35;30.10;56.20
35377;DHT22;21480;51.642;4.834;2022-08-11T18:52:21;29.50;56.00
35377;DHT22;21480;51.642;4.834;2022-08-11T18:55:15;28.80;57.70
35377;DHT22;21480;51.642;4.834;2022-08-11T18:58:03;28.30;58.30
35377;DHT22;21480;51.642;4.834;2022-08-11T19:00:49;27.80;60.50
35377;DHT22;21480;51.642;4.834;2022-08-11T19:03:34;27.50;60.30
35377;DHT22;21480;51.642;4.834;2022-08-11T19:06:21;27.10;61.70
35377;DHT22;21480;51.642;4.834;2022-08-11T19:09:11;26.80;62.70
35377;DHT22;21480;51.642;4.834;2022-08-11T19:11:57;26.50;64.40
35377;DHT22;21480;51.642;4.834;2022-08-11T19:14:44;26.30;64.40
35377;DHT22;21480;51.642;4.834;2022-08-11T19:17:30;26.10;65.50
35377;DHT22;21480;51.642;4.834;2022-08-11T19:20:21;25.90;66.40
35377;DHT22;21480;51.642;4.834;2022-08-11T19:23:09;25.70;68.10
35377;DHT22;21480;51.642;4.834;2022-08-11T19:25:55;25.50;71.50
35377;DHT22;21480;51.642;4.834;2022-08-11T19:28:41;25.30;73.70
35377;DHT22;21480;51.642;4.834;2022-08-11T19:31:27;25.10;73.70
35377;DHT22;21480;51.642;4.834;2022-08-11T19:34:15;24.90;76.60
35377;DHT22;21480;51.642;4.834;2022-08-11T19:37:01;24.60;77.00
35377;DHT22;21480;51.642;4.834;2022-08-11T19:39:46;24.40;77.80
35377;DHT22;21480;51.642;4.834;2022-08-11T19:42:32;24.20;78.30
35377;DHT22;21480;51.642;4.834;2022-08-11T19:45:17;24.10;80.60
35377;DHT22;21480;51.642;4.834;2022-08-11T19:48:01;24.00;81.10